sensor_id;sensor_type;location;lat;lon;timestamp;P1;durP1;ratioP1;P2;durP2;ratioP2
28682;SDS011;15862;43.062;25.626;2022-07-03T00:00:43;10.75;;;8.77;;
28682;SDS011;15862;43.062;25.626;2022-07-03T00:03:08;10.68;;;8.23;;
28682;SDS011;15862;43.062;25.626;2022-07-03T00:05:34;10.02;;;8.82;;
28682;SDS011;15862;43.062;25.626;2022-07-03T00:08:00;11.70;;;8.80;;
28682;SDS011;15862;43.062;25.626;2022-07-03T00:10:28;10.95;;;7.95;;
28682;SDS011;15862;43.062;25.626;2022-07-03T00:12:53;11.38;;;8.40;;
28682;SDS011;15862;43.062;25.626;2022-07-03T00:15:18;13.80;;;8.60;;
28682;SDS011;15862;43.062;25.626;2022-07-03T00:17:44;9.88;;;8.95;;
28682;SDS011;15862;43.062;25.626;2022-07-03T00:20:09;12.18;;;8.80;;
28682;SDS011;15862;43.062;25.626;2022-07-03T00:22:37;9.63;;;8.48;;
28682;SDS011;15862;43.062;25.626;2022-07-03T00:25:06;14.88;;;9.10;;
28682;SDS011;15862;43.062;25.626;2022-07-03T00:27:33;10.68;;;8.55;;
28682;SDS011;15862;43.062;25.626;2022-07-03T00:29:59;10.65;;;9.48;;
28682;SDS011;15862;43.062;25.626;2022-07-03T00:32:26;9.52;;;8.45;;
28682;SDS011;15862;43.062;25.626;2022-07-03T00:34:53;10.60;;;8.57;;
28682;SDS011;15862;43.062;25.626;2022-07-03T00:37:21;11.27;;;8.57;;
28682;SDS011;15862;43.062;25.626;2022-07-03T00:39:48;12.85;;;9.48;;
28682;SDS011;15862;43.062;25.626;2022-07-03T00:42:15;11.65;;;9.60;;
28682;SDS011;15862;43.062;25.626;2022-07-03T00:47:18;13.88;;;9.20;;
28682;SDS011;15862;43.062;25.626;2022-07-03T00:49:46;12.10;;;9.98;;
28682;SDS011;15862;43.062;25.626;2022-07-03T00:52:13;10.23;;;9.15;;
28682;SDS011;15862;43.062;25.626;2022-07-03T00:54:44;10.10;;;9.10;;
28682;SDS011;15862;43.062;25.626;2022-07-03T00:57:16;13.85;;;8.88;;
28682;SDS011;15862;43.062;25.626;2022-07-03T00:59:43;10.70;;;8.95;;
28682;SDS011;15862;43.062;25.626;2022-07-03T01:02:12;9.13;;;8.18;;
28682;SDS011;15862;43.062;25.626;2022-07-03T01:04:51;12.88;;;9.02;;
28682;SDS011;15862;43.062;25.626;2022-07-03T01:07:34;9.35;;;8.45;;
28682;SDS011;15862;43.062;25.626;2022-07-03T01:12:38;10.00;;;9.02;;
28682;SDS011;15862;43.062;25.626;2022-07-03T01:21:04;11.55;;;8.98;;
28682;SDS011;15862;43.062;25.626;2022-07-03T01:23:54;13.18;;;9.18;;
28682;SDS011;15862;43.062;25.626;2022-07-03T01:26:22;13.43;;;9.80;;
28682;SDS011;15862;43.062;25.626;2022-07-03T01:28:52;12.38;;;8.52;;
28682;SDS011;15862;43.062;25.626;2022-07-03T01:31:20;12.18;;;9.63;;
28682;SDS011;15862;43.062;25.626;2022-07-03T01:33:46;11.55;;;8.77;;
28682;SDS011;15862;43.062;25.626;2022-07-03T01:36:16;11.10;;;9.05;;
28682;SDS011;15862;43.062;25.626;2022-07-03T01:38:46;10.05;;;9.13;;
28682;SDS011;15862;43.062;25.626;2022-07-03T01:41:14;12.80;;;10.40;;
28682;SDS011;15862;43.062;25.626;2022-07-03T01:43:49;15.40;;;10.07;;
28682;SDS011;15862;43.062;25.626;2022-07-03T01:46:18;11.45;;;9.18;;
28682;SDS011;15862;43.062;25.626;2022-07-03T01:48:46;19.00;;;10.52;;
28682;SDS011;15862;43.062;25.626;2022-07-03T01:51:14;13.15;;;9.60;;
28682;SDS011;15862;43.062;25.626;2022-07-03T01:53:46;11.23;;;10.10;;
28682;SDS011;15862;43.062;25.626;2022-07-03T01:56:14;17.27;;;9.60;;
28682;SDS011;15862;43.062;25.626;2022-07-03T01:58:40;13.50;;;10.70;;
28682;SDS011;15862;43.062;25.626;2022-07-03T02:01:08;13.88;;;9.60;;
28682;SDS011;15862;43.062;25.626;2022-07-03T02:06:44;10.98;;;9.80;;
28682;SDS011;15862;43.062;25.626;2022-07-03T02:09:17;11.18;;;10.02;;
28682;SDS011;15862;43.062;25.626;2022-07-03T02:11:47;13.13;;;11.05;;
28682;SDS011;15862;43.062;25.626;2022-07-03T02:17:13;15.13;;;10.55;;
28682;SDS011;15862;43.062;25.626;2022-07-03T02:22:34;15.23;;;10.27;;
28682;SDS011;15862;43.062;25.626;2022-07-03T02:25:12;15.40;;;11.02;;
28682;SDS011;15862;43.062;25.626;2022-07-03T02:27:48;11.02;;;9.93;;
28682;SDS011;15862;43.062;25.626;2022-07-03T02:30:19;13.63;;;11.00;;
28682;SDS011;15862;43.062;25.626;2022-07-03T02:32:49;15.32;;;10.55;;
28682;SDS011;15862;43.062;25.626;2022-07-03T02:46:38;15.05;;;11.25;;
28682;SDS011;15862;43.062;25.626;2022-07-03T02:51:52;11.70;;;9.88;;
28682;SDS011;15862;43.062;25.626;2022-07-03T02:54:26;12.60;;;10.55;;
28682;SDS011;15862;43.062;25.626;2022-07-03T02:57:07;12.27;;;9.60;;
28682;SDS011;15862;43.062;25.626;2022-07-03T03:02:23;11.05;;;9.88;;
28682;SDS011;15862;43.062;25.626;2022-07-03T03:05:02;12.52;;;9.52;;
28682;SDS011;15862;43.062;25.626;2022-07-03T03:07:35;13.25;;;10.10;;
28682;SDS011;15862;43.062;25.626;2022-07-03T03:10:05;12.18;;;10.90;;
28682;SDS011;15862;43.062;25.626;2022-07-03T03:12:36;14.43;;;10.57;;
28682;SDS011;15862;43.062;25.626;2022-07-03T03:15:03;11.05;;;9.85;;
28682;SDS011;15862;43.062;25.626;2022-07-03T03:18:03;16.70;;;11.15;;
28682;SDS011;15862;43.062;25.626;2022-07-03T03:20:22;12.93;;;10.80;;
28682;SDS011;15862;43.062;25.626;2022-07-03T03:23:08;13.23;;;10.77;;
28682;SDS011;15862;43.062;25.626;2022-07-03T03:25:37;14.80;;;11.40;;
28682;SDS011;15862;43.062;25.626;2022-07-03T03:28:02;13.98;;;10.60;;
28682;SDS011;15862;43.062;25.626;2022-07-03T03:30:28;13.63;;;10.23;;
28682;SDS011;15862;43.062;25.626;2022-07-03T03:32:54;11.32;;;10.20;;
28682;SDS011;15862;43.062;25.626;2022-07-03T03:35:19;14.00;;;11.20;;
28682;SDS011;15862;43.062;25.626;2022-07-03T03:37:45;12.68;;;11.27;;
28682;SDS011;15862;43.062;25.626;2022-07-03T03:40:13;14.90;;;10.93;;
28682;SDS011;15862;43.062;25.626;2022-07-03T03:42:40;13.10;;;11.15;;
28682;SDS011;15862;43.062;25.626;2022-07-03T03:45:06;12.27;;;10.10;;
28682;SDS011;15862;43.062;25.626;2022-07-03T03:47:33;13.85;;;10.90;;
28682;SDS011;15862;43.062;25.626;2022-07-03T03:49:59;10.40;;;9.35;;
28682;SDS011;15862;43.062;25.626;2022-07-03T03:52:26;12.02;;;10.35;;
28682;SDS011;15862;43.062;25.626;2022-07-03T03:54:51;11.90;;;9.07;;
28682;SDS011;15862;43.062;25.626;2022-07-03T03:59:46;9.85;;;8.50;;
28682;SDS011;15862;43.062;25.626;2022-07-03T04:02:12;11.73;;;9.10;;
28682;SDS011;15862;43.062;25.626;2022-07-03T04:04:38;10.75;;;9.15;;
28682;SDS011;15862;43.062;25.626;2022-07-03T04:07:04;9.82;;;8.68;;
28682;SDS011;15862;43.062;25.626;2022-07-03T04:09:29;10.75;;;8.43;;
28682;SDS011;15862;43.062;25.626;2022-07-03T04:11:55;10.40;;;8.50;;
28682;SDS011;15862;43.062;25.626;2022-07-03T04:14:21;13.75;;;8.95;;
28682;SDS011;15862;43.062;25.626;2022-07-03T04:16:46;8.10;;;7.30;;
28682;SDS011;15862;43.062;25.626;2022-07-03T04:19:11;10.98;;;8.30;;
28682;SDS011;15862;43.062;25.626;2022-07-03T04:21:37;8.43;;;7.57;;
28682;SDS011;15862;43.062;25.626;2022-07-03T04:24:02;11.38;;;8.75;;
28682;SDS011;15862;43.062;25.626;2022-07-03T04:26:28;9.95;;;8.40;;
28682;SDS011;15862;43.062;25.626;2022-07-03T04:28:53;8.93;;;7.75;;
28682;SDS011;15862;43.062;25.626;2022-07-03T04:31:19;8.60;;;7.75;;
28682;SDS011;15862;43.062;25.626;2022-07-03T04:33:44;9.05;;;8.15;;
28682;SDS011;15862;43.062;25.626;2022-07-03T04:36:10;8.48;;;7.50;;
28682;SDS011;15862;43.062;25.626;2022-07-03T04:38:35;8.65;;;7.65;;
28682;SDS011;15862;43.062;25.626;2022-07-03T04:41:00;9.50;;;7.47;;
28682;SDS011;15862;43.062;25.626;2022-07-03T04:43:26;8.82;;;7.57;;
28682;SDS011;15862;43.062;25.626;2022-07-03T04:45:51;9.98;;;7.90;;
28682;SDS011;15862;43.062;25.626;2022-07-03T04:48:17;10.10;;;7.32;;
28682;SDS011;15862;43.062;25.626;2022-07-03T04:50:42;7.78;;;7.03;;
28682;SDS011;15862;43.062;25.626;2022-07-03T04:53:08;8.52;;;7.68;;
28682;SDS011;15862;43.062;25.626;2022-07-03T04:55:33;8.45;;;7.25;;
28682;SDS011;15862;43.062;25.626;2022-07-03T04:57:59;11.05;;;7.32;;
28682;SDS011;15862;43.062;25.626;2022-07-03T05:00:24;8.68;;;7.63;;
28682;SDS011;15862;43.062;25.626;2022-07-03T05:02:50;8.73;;;7.03;;
28682;SDS011;15862;43.062;25.626;2022-07-03T05:05:15;8.93;;;8.02;;
28682;SDS011;15862;43.062;25.626;2022-07-03T05:07:41;7.72;;;7.03;;
28682;SDS011;15862;43.062;25.626;2022-07-03T05:10:07;11.60;;;7.85;;
28682;SDS011;15862;43.062;25.626;2022-07-03T05:12:32;9.68;;;7.63;;
28682;SDS011;15862;43.062;25.626;2022-07-03T05:14:58;10.85;;;6.63;;
28682;SDS011;15862;43.062;25.626;2022-07-03T05:17:23;8.93;;;7.28;;
28682;SDS011;15862;43.062;25.626;2022-07-03T05:19:49;7.55;;;6.85;;
28682;SDS011;15862;43.062;25.626;2022-07-03T05:22:34;8.70;;;7.28;;
28682;SDS011;15862;43.062;25.626;2022-07-03T05:25:00;7.63;;;6.93;;
28682;SDS011;15862;43.062;25.626;2022-07-03T05:27:25;9.43;;;7.47;;
28682;SDS011;15862;43.062;25.626;2022-07-03T05:29:50;8.82;;;7.15;;
28682;SDS011;15862;43.062;25.626;2022-07-03T05:32:16;8.27;;;7.47;;
28682;SDS011;15862;43.062;25.626;2022-07-03T05:34:41;8.73;;;7.40;;
28682;SDS011;15862;43.062;25.626;2022-07-03T05:37:07;13.38;;;7.30;;
28682;SDS011;15862;43.062;25.626;2022-07-03T05:39:32;11.05;;;7.57;;
28682;SDS011;15862;43.062;25.626;2022-07-03T05:41:58;7.78;;;7.03;;
28682;SDS011;15862;43.062;25.626;2022-07-03T05:44:23;7.72;;;6.90;;
28682;SDS011;15862;43.062;25.626;2022-07-03T05:46:48;7.88;;;7.13;;
28682;SDS011;15862;43.062;25.626;2022-07-03T05:49:14;7.68;;;6.90;;
28682;SDS011;15862;43.062;25.626;2022-07-03T05:51:39;8.38;;;7.55;;
28682;SDS011;15862;43.062;25.626;2022-07-03T05:54:05;8.95;;;6.78;;
28682;SDS011;15862;43.062;25.626;2022-07-03T05:56:30;12.55;;;7.50;;
28682;SDS011;15862;43.062;25.626;2022-07-03T05:58:56;10.25;;;6.72;;
28682;SDS011;15862;43.062;25.626;2022-07-03T06:01:21;7.18;;;6.57;;
28682;SDS011;15862;43.062;25.626;2022-07-03T06:03:48;9.68;;;6.43;;
28682;SDS011;15862;43.062;25.626;2022-07-03T06:06:14;7.75;;;6.95;;
28682;SDS011;15862;43.062;25.626;2022-07-03T06:08:39;8.48;;;6.55;;
28682;SDS011;15862;43.062;25.626;2022-07-03T06:11:05;6.53;;;5.93;;
28682;SDS011;15862;43.062;25.626;2022-07-03T06:13:30;8.45;;;6.30;;
28682;SDS011;15862;43.062;25.626;2022-07-03T06:15:56;6.82;;;5.93;;
28682;SDS011;15862;43.062;25.626;2022-07-03T06:18:21;7.85;;;5.95;;
28682;SDS011;15862;43.062;25.626;2022-07-03T06:20:47;6.50;;;5.88;;
28682;SDS011;15862;43.062;25.626;2022-07-03T06:23:12;8.20;;;5.57;;
28682;SDS011;15862;43.062;25.626;2022-07-03T06:25:37;6.80;;;6.18;;
28682;SDS011;15862;43.062;25.626;2022-07-03T06:28:03;9.48;;;6.15;;
28682;SDS011;15862;43.062;25.626;2022-07-03T06:30:28;6.97;;;6.15;;
28682;SDS011;15862;43.062;25.626;2022-07-03T06:32:54;7.00;;;6.30;;
28682;SDS011;15862;43.062;25.626;2022-07-03T06:35:19;9.60;;;6.32;;
28682;SDS011;15862;43.062;25.626;2022-07-03T06:37:45;7.80;;;7.10;;
28682;SDS011;15862;43.062;25.626;2022-07-03T06:40:10;7.72;;;6.20;;
28682;SDS011;15862;43.062;25.626;2022-07-03T06:42:36;7.43;;;6.63;;
28682;SDS011;15862;43.062;25.626;2022-07-03T06:45:01;6.60;;;6.00;;
28682;SDS011;15862;43.062;25.626;2022-07-03T06:47:27;7.00;;;6.30;;
28682;SDS011;15862;43.062;25.626;2022-07-03T06:49:52;7.35;;;5.82;;
28682;SDS011;15862;43.062;25.626;2022-07-03T06:52:17;9.63;;;5.57;;
28682;SDS011;15862;43.062;25.626;2022-07-03T06:54:43;7.78;;;6.10;;
28682;SDS011;15862;43.062;25.626;2022-07-03T06:57:11;7.38;;;6.35;;
28682;SDS011;15862;43.062;25.626;2022-07-03T06:59:38;9.38;;;6.00;;
28682;SDS011;15862;43.062;25.626;2022-07-03T07:02:03;10.23;;;6.75;;
28682;SDS011;15862;43.062;25.626;2022-07-03T07:04:29;7.25;;;6.53;;
28682;SDS011;15862;43.062;25.626;2022-07-03T07:06:55;7.25;;;5.55;;
28682;SDS011;15862;43.062;25.626;2022-07-03T07:09:20;11.70;;;5.85;;
28682;SDS011;15862;43.062;25.626;2022-07-03T07:11:45;9.40;;;6.43;;
28682;SDS011;15862;43.062;25.626;2022-07-03T07:14:11;7.07;;;6.38;;
28682;SDS011;15862;43.062;25.626;2022-07-03T07:16:36;7.07;;;6.47;;
28682;SDS011;15862;43.062;25.626;2022-07-03T07:19:02;9.00;;;6.22;;
28682;SDS011;15862;43.062;25.626;2022-07-03T07:21:27;6.78;;;6.10;;
28682;SDS011;15862;43.062;25.626;2022-07-03T07:23:53;10.50;;;6.68;;
28682;SDS011;15862;43.062;25.626;2022-07-03T07:26:18;6.43;;;5.82;;
28682;SDS011;15862;43.062;25.626;2022-07-03T07:28:45;6.47;;;5.88;;
28682;SDS011;15862;43.062;25.626;2022-07-03T07:31:11;10.32;;;6.80;;
28682;SDS011;15862;43.062;25.626;2022-07-03T07:33:37;8.27;;;6.68;;
28682;SDS011;15862;43.062;25.626;2022-07-03T07:36:02;9.48;;;6.78;;
28682;SDS011;15862;43.062;25.626;2022-07-03T07:38:28;6.35;;;5.88;;
28682;SDS011;15862;43.062;25.626;2022-07-03T07:40:53;6.28;;;5.70;;
28682;SDS011;15862;43.062;25.626;2022-07-03T07:43:19;7.85;;;6.00;;
28682;SDS011;15862;43.062;25.626;2022-07-03T07:45:44;6.68;;;6.07;;
28682;SDS011;15862;43.062;25.626;2022-07-03T07:48:10;8.60;;;6.70;;
28682;SDS011;15862;43.062;25.626;2022-07-03T07:50:35;6.65;;;5.15;;
28682;SDS011;15862;43.062;25.626;2022-07-03T07:53:01;7.55;;;6.15;;
28682;SDS011;15862;43.062;25.626;2022-07-03T07:55:27;7.13;;;5.93;;
28682;SDS011;15862;43.062;25.626;2022-07-03T07:57:52;6.10;;;5.18;;
28682;SDS011;15862;43.062;25.626;2022-07-03T08:00:18;5.50;;;4.82;;
28682;SDS011;15862;43.062;25.626;2022-07-03T08:02:44;5.88;;;5.38;;
28682;SDS011;15862;43.062;25.626;2022-07-03T08:05:29;6.68;;;6.07;;
28682;SDS011;15862;43.062;25.626;2022-07-03T08:08:02;6.70;;;5.85;;
28682;SDS011;15862;43.062;25.626;2022-07-03T08:10:36;5.82;;;5.43;;
28682;SDS011;15862;43.062;25.626;2022-07-03T08:13:02;8.60;;;5.82;;
28682;SDS011;15862;43.062;25.626;2022-07-03T08:15:28;6.22;;;5.57;;
28682;SDS011;15862;43.062;25.626;2022-07-03T08:17:53;6.72;;;4.88;;
28682;SDS011;15862;43.062;25.626;2022-07-03T08:20:19;5.18;;;4.60;;
28682;SDS011;15862;43.062;25.626;2022-07-03T08:22:44;6.47;;;4.10;;
28682;SDS011;15862;43.062;25.626;2022-07-03T08:25:10;4.40;;;4.10;;
28682;SDS011;15862;43.062;25.626;2022-07-03T08:27:35;5.20;;;4.78;;
28682;SDS011;15862;43.062;25.626;2022-07-03T08:30:01;4.63;;;4.22;;
28682;SDS011;15862;43.062;25.626;2022-07-03T08:32:26;5.05;;;4.13;;
28682;SDS011;15862;43.062;25.626;2022-07-03T08:34:52;4.60;;;4.13;;
28682;SDS011;15862;43.062;25.626;2022-07-03T08:37:17;4.78;;;3.75;;
28682;SDS011;15862;43.062;25.626;2022-07-03T08:39:43;5.45;;;4.30;;
28682;SDS011;15862;43.062;25.626;2022-07-03T08:42:09;3.88;;;3.58;;
28682;SDS011;15862;43.062;25.626;2022-07-03T08:44:36;6.63;;;4.25;;
28682;SDS011;15862;43.062;25.626;2022-07-03T08:47:03;5.97;;;3.72;;
28682;SDS011;15862;43.062;25.626;2022-07-03T08:49:29;6.35;;;3.83;;
28682;SDS011;15862;43.062;25.626;2022-07-03T08:51:54;4.50;;;4.10;;
28682;SDS011;15862;43.062;25.626;2022-07-03T08:54:20;5.50;;;4.07;;
28682;SDS011;15862;43.062;25.626;2022-07-03T08:56:46;6.35;;;3.50;;
28682;SDS011;15862;43.062;25.626;2022-07-03T08:59:12;8.65;;;4.28;;
28682;SDS011;15862;43.062;25.626;2022-07-03T09:01:38;5.85;;;3.65;;
28682;SDS011;15862;43.062;25.626;2022-07-03T09:04:08;6.55;;;3.90;;
28682;SDS011;15862;43.062;25.626;2022-07-03T09:06:36;5.53;;;3.58;;
28682;SDS011;15862;43.062;25.626;2022-07-03T09:09:03;7.38;;;3.90;;
28682;SDS011;15862;43.062;25.626;2022-07-03T09:11:28;4.18;;;3.80;;
28682;SDS011;15862;43.062;25.626;2022-07-03T09:13:54;3.40;;;3.17;;
28682;SDS011;15862;43.062;25.626;2022-07-03T09:16:19;3.72;;;3.42;;
28682;SDS011;15862;43.062;25.626;2022-07-03T09:18:45;5.43;;;3.67;;
28682;SDS011;15862;43.062;25.626;2022-07-03T09:21:10;3.70;;;3.40;;
28682;SDS011;15862;43.062;25.626;2022-07-03T09:23:37;3.60;;;3.35;;
28682;SDS011;15862;43.062;25.626;2022-07-03T09:26:04;7.35;;;3.35;;
28682;SDS011;15862;43.062;25.626;2022-07-03T09:31:08;3.80;;;2.63;;
28682;SDS011;15862;43.062;25.626;2022-07-03T09:33:34;4.15;;;3.50;;
28682;SDS011;15862;43.062;25.626;2022-07-03T09:36:00;4.93;;;3.17;;
28682;SDS011;15862;43.062;25.626;2022-07-03T09:38:25;5.35;;;3.08;;
28682;SDS011;15862;43.062;25.626;2022-07-03T09:40:54;5.13;;;3.00;;
28682;SDS011;15862;43.062;25.626;2022-07-03T09:43:26;6.38;;;3.45;;
28682;SDS011;15862;43.062;25.626;2022-07-03T09:45:58;6.67;;;3.73;;
28682;SDS011;15862;43.062;25.626;2022-07-03T09:48:31;6.05;;;3.17;;
28682;SDS011;15862;43.062;25.626;2022-07-03T09:53:53;8.10;;;2.88;;
28682;SDS011;15862;43.062;25.626;2022-07-03T09:56:25;4.45;;;3.10;;
28682;SDS011;15862;43.062;25.626;2022-07-03T09:59:25;3.72;;;3.05;;
28682;SDS011;15862;43.062;25.626;2022-07-03T10:01:45;5.32;;;3.20;;
28682;SDS011;15862;43.062;25.626;2022-07-03T10:04:18;5.85;;;3.33;;
28682;SDS011;15862;43.062;25.626;2022-07-03T10:06:57;4.35;;;3.58;;
28682;SDS011;15862;43.062;25.626;2022-07-03T10:09:25;5.22;;;3.33;;
28682;SDS011;15862;43.062;25.626;2022-07-03T10:11:52;9.43;;;3.80;;
28682;SDS011;15862;43.062;25.626;2022-07-03T10:14:20;3.88;;;3.25;;
28682;SDS011;15862;43.062;25.626;2022-07-03T10:16:47;5.57;;;3.83;;
28682;SDS011;15862;43.062;25.626;2022-07-03T10:19:20;5.00;;;3.28;;
28682;SDS011;15862;43.062;25.626;2022-07-03T10:21:51;4.07;;;3.67;;
28682;SDS011;15862;43.062;25.626;2022-07-03T10:24:18;5.28;;;3.47;;
28682;SDS011;15862;43.062;25.626;2022-07-03T10:26:47;2.95;;;2.65;;
28682;SDS011;15862;43.062;25.626;2022-07-03T10:29:13;4.70;;;3.13;;
28682;SDS011;15862;43.062;25.626;2022-07-03T10:31:41;4.85;;;3.28;;
28682;SDS011;15862;43.062;25.626;2022-07-03T10:34:09;4.60;;;2.90;;
28682;SDS011;15862;43.062;25.626;2022-07-03T10:36:36;3.85;;;3.55;;
28682;SDS011;15862;43.062;25.626;2022-07-03T10:39:04;3.80;;;3.50;;
28682;SDS011;15862;43.062;25.626;2022-07-03T10:44:20;5.50;;;3.42;;
28682;SDS011;15862;43.062;25.626;2022-07-03T10:47:04;5.95;;;3.70;;
28682;SDS011;15862;43.062;25.626;2022-07-03T10:49:30;9.32;;;3.28;;
28682;SDS011;15862;43.062;25.626;2022-07-03T10:54:26;3.40;;;3.10;;
28682;SDS011;15862;43.062;25.626;2022-07-03T11:07:25;3.25;;;3.05;;
28682;SDS011;15862;43.062;25.626;2022-07-03T11:25:53;4.85;;;2.88;;
28682;SDS011;15862;43.062;25.626;2022-07-03T11:36:08;3.10;;;2.80;;
28682;SDS011;15862;43.062;25.626;2022-07-03T11:38:34;5.47;;;3.50;;
28682;SDS011;15862;43.062;25.626;2022-07-03T11:41:00;3.45;;;3.15;;
28682;SDS011;15862;43.062;25.626;2022-07-03T11:43:27;4.07;;;3.38;;
28682;SDS011;15862;43.062;25.626;2022-07-03T11:45:53;3.97;;;3.30;;
28682;SDS011;15862;43.062;25.626;2022-07-03T11:48:20;3.78;;;2.85;;
28682;SDS011;15862;43.062;25.626;2022-07-03T11:50:48;3.05;;;2.80;;
28682;SDS011;15862;43.062;25.626;2022-07-03T11:53:18;4.53;;;3.80;;
28682;SDS011;15862;43.062;25.626;2022-07-03T11:55:55;5.00;;;2.83;;
28682;SDS011;15862;43.062;25.626;2022-07-03T11:58:39;4.60;;;3.00;;
28682;SDS011;15862;43.062;25.626;2022-07-03T12:03:50;3.92;;;2.53;;
28682;SDS011;15862;43.062;25.626;2022-07-03T12:06:16;5.50;;;2.85;;
28682;SDS011;15862;43.062;25.626;2022-07-03T12:08:42;3.63;;;3.08;;
28682;SDS011;15862;43.062;25.626;2022-07-03T12:11:11;3.42;;;2.70;;
28682;SDS011;15862;43.062;25.626;2022-07-03T12:13:38;3.78;;;3.30;;
28682;SDS011;15862;43.062;25.626;2022-07-03T12:16:09;5.03;;;3.08;;
28682;SDS011;15862;43.062;25.626;2022-07-03T12:18:42;4.95;;;3.28;;
28682;SDS011;15862;43.062;25.626;2022-07-03T12:21:11;4.72;;;3.38;;
28682;SDS011;15862;43.062;25.626;2022-07-03T12:23:43;4.03;;;3.10;;
28682;SDS011;15862;43.062;25.626;2022-07-03T12:26:28;6.43;;;3.30;;
28682;SDS011;15862;43.062;25.626;2022-07-03T12:28:58;5.05;;;2.88;;
28682;SDS011;15862;43.062;25.626;2022-07-03T12:31:29;4.05;;;3.00;;
28682;SDS011;15862;43.062;25.626;2022-07-03T12:33:55;4.68;;;2.95;;
28682;SDS011;15862;43.062;25.626;2022-07-03T12:36:23;4.43;;;2.97;;
28682;SDS011;15862;43.062;25.626;2022-07-03T12:38:49;6.47;;;2.80;;
28682;SDS011;15862;43.062;25.626;2022-07-03T12:41:18;6.03;;;3.33;;
28682;SDS011;15862;43.062;25.626;2022-07-03T12:43:45;4.25;;;3.55;;
28682;SDS011;15862;43.062;25.626;2022-07-03T12:46:23;4.63;;;3.00;;
28682;SDS011;15862;43.062;25.626;2022-07-03T12:48:55;4.75;;;3.75;;
28682;SDS011;15862;43.062;25.626;2022-07-03T12:54:11;3.30;;;2.97;;
28682;SDS011;15862;43.062;25.626;2022-07-03T12:56:45;5.38;;;3.03;;
28682;SDS011;15862;43.062;25.626;2022-07-03T12:59:23;5.03;;;2.83;;
28682;SDS011;15862;43.062;25.626;2022-07-03T13:02:05;2.83;;;2.58;;
28682;SDS011;15862;43.062;25.626;2022-07-03T13:04:34;3.67;;;3.05;;
28682;SDS011;15862;43.062;25.626;2022-07-03T13:07:02;3.67;;;2.58;;
28682;SDS011;15862;43.062;25.626;2022-07-03T13:09:33;4.57;;;3.13;;
28682;SDS011;15862;43.062;25.626;2022-07-03T13:12:00;6.60;;;2.70;;
28682;SDS011;15862;43.062;25.626;2022-07-03T13:14:26;4.15;;;2.67;;
28682;SDS011;15862;43.062;25.626;2022-07-03T13:16:52;2.85;;;2.65;;
28682;SDS011;15862;43.062;25.626;2022-07-03T13:19:20;5.53;;;2.85;;
28682;SDS011;15862;43.062;25.626;2022-07-03T13:21:46;4.78;;;2.90;;
28682;SDS011;15862;43.062;25.626;2022-07-03T13:24:14;3.35;;;3.05;;
28682;SDS011;15862;43.062;25.626;2022-07-03T13:26:41;2.95;;;2.75;;
28682;SDS011;15862;43.062;25.626;2022-07-03T13:29:07;4.53;;;3.25;;
28682;SDS011;15862;43.062;25.626;2022-07-03T13:31:33;4.47;;;3.10;;
28682;SDS011;15862;43.062;25.626;2022-07-03T13:33:58;6.57;;;3.25;;
28682;SDS011;15862;43.062;25.626;2022-07-03T13:36:25;4.13;;;2.90;;
28682;SDS011;15862;43.062;25.626;2022-07-03T13:38:51;3.72;;;3.42;;
28682;SDS011;15862;43.062;25.626;2022-07-03T13:41:17;7.50;;;3.67;;
28682;SDS011;15862;43.062;25.626;2022-07-03T13:43:44;3.47;;;3.03;;
28682;SDS011;15862;43.062;25.626;2022-07-03T13:46:10;3.92;;;3.33;;
28682;SDS011;15862;43.062;25.626;2022-07-03T13:48:36;5.22;;;3.28;;
28682;SDS011;15862;43.062;25.626;2022-07-03T13:51:01;3.53;;;3.22;;
28682;SDS011;15862;43.062;25.626;2022-07-03T13:53:27;4.75;;;3.33;;
28682;SDS011;15862;43.062;25.626;2022-07-03T13:55:56;3.92;;;3.17;;
28682;SDS011;15862;43.062;25.626;2022-07-03T13:58:22;4.35;;;3.10;;
28682;SDS011;15862;43.062;25.626;2022-07-03T14:00:48;3.33;;;3.13;;
28682;SDS011;15862;43.062;25.626;2022-07-03T14:03:13;4.95;;;3.45;;
28682;SDS011;15862;43.062;25.626;2022-07-03T14:05:39;5.25;;;3.38;;
28682;SDS011;15862;43.062;25.626;2022-07-03T14:08:04;4.93;;;3.33;;
28682;SDS011;15862;43.062;25.626;2022-07-03T14:10:30;5.50;;;3.10;;
28682;SDS011;15862;43.062;25.626;2022-07-03T14:12:55;6.80;;;3.35;;
28682;SDS011;15862;43.062;25.626;2022-07-03T14:15:21;4.18;;;3.22;;
28682;SDS011;15862;43.062;25.626;2022-07-03T14:17:46;3.35;;;3.03;;
28682;SDS011;15862;43.062;25.626;2022-07-03T14:20:11;7.10;;;3.08;;
28682;SDS011;15862;43.062;25.626;2022-07-03T14:22:38;5.43;;;4.13;;
28682;SDS011;15862;43.062;25.626;2022-07-03T14:25:03;4.80;;;3.10;;
28682;SDS011;15862;43.062;25.626;2022-07-03T14:27:29;4.68;;;3.67;;
28682;SDS011;15862;43.062;25.626;2022-07-03T14:30:13;3.80;;;3.50;;
28682;SDS011;15862;43.062;25.626;2022-07-03T14:32:57;4.40;;;3.30;;
28682;SDS011;15862;43.062;25.626;2022-07-03T14:35:23;3.53;;;3.22;;
28682;SDS011;15862;43.062;25.626;2022-07-03T14:37:48;8.10;;;3.75;;
28682;SDS011;15862;43.062;25.626;2022-07-03T14:40:14;3.95;;;3.47;;
28682;SDS011;15862;43.062;25.626;2022-07-03T14:42:40;3.92;;;3.33;;
28682;SDS011;15862;43.062;25.626;2022-07-03T14:45:06;3.35;;;3.15;;
28682;SDS011;15862;43.062;25.626;2022-07-03T14:47:34;5.10;;;3.50;;
28682;SDS011;15862;43.062;25.626;2022-07-03T14:49:59;3.50;;;3.20;;
28682;SDS011;15862;43.062;25.626;2022-07-03T14:52:25;6.22;;;4.25;;
28682;SDS011;15862;43.062;25.626;2022-07-03T14:54:51;3.92;;;3.60;;
28682;SDS011;15862;43.062;25.626;2022-07-03T15:02:42;6.82;;;3.40;;
28682;SDS011;15862;43.062;25.626;2022-07-03T15:07:56;5.90;;;3.50;;
28682;SDS011;15862;43.062;25.626;2022-07-03T15:10:48;6.13;;;3.10;;
28682;SDS011;15862;43.062;25.626;2022-07-03T15:13:14;6.68;;;3.65;;
28682;SDS011;15862;43.062;25.626;2022-07-03T15:15:40;6.13;;;3.30;;
28682;SDS011;15862;43.062;25.626;2022-07-03T15:18:19;7.43;;;3.60;;
28682;SDS011;15862;43.062;25.626;2022-07-03T15:20:46;7.07;;;3.40;;
28682;SDS011;15862;43.062;25.626;2022-07-03T15:23:12;9.32;;;3.28;;
28682;SDS011;15862;43.062;25.626;2022-07-03T15:25:38;3.58;;;3.20;;
28682;SDS011;15862;43.062;25.626;2022-07-03T15:28:14;3.85;;;3.45;;
28682;SDS011;15862;43.062;25.626;2022-07-03T15:30:50;5.32;;;2.90;;
28682;SDS011;15862;43.062;25.626;2022-07-03T15:33:18;4.07;;;3.75;;
28682;SDS011;15862;43.062;25.626;2022-07-03T15:35:45;5.18;;;3.40;;
28682;SDS011;15862;43.062;25.626;2022-07-03T15:38:17;3.92;;;3.28;;
28682;SDS011;15862;43.062;25.626;2022-07-03T15:40:46;3.67;;;3.30;;
28682;SDS011;15862;43.062;25.626;2022-07-03T15:53:49;7.75;;;3.85;;
28682;SDS011;15862;43.062;25.626;2022-07-03T15:56:16;4.85;;;3.60;;
28682;SDS011;15862;43.062;25.626;2022-07-03T15:58:50;3.53;;;3.10;;
28682;SDS011;15862;43.062;25.626;2022-07-03T16:01:18;3.80;;;3.50;;
28682;SDS011;15862;43.062;25.626;2022-07-03T16:04:09;4.50;;;3.67;;
28682;SDS011;15862;43.062;25.626;2022-07-03T16:06:42;9.80;;;4.05;;
28682;SDS011;15862;43.062;25.626;2022-07-03T16:09:11;4.82;;;3.60;;
28682;SDS011;15862;43.062;25.626;2022-07-03T16:11:36;5.65;;;3.40;;
28682;SDS011;15862;43.062;25.626;2022-07-03T16:14:03;6.10;;;3.38;;
28682;SDS011;15862;43.062;25.626;2022-07-03T16:16:30;6.13;;;3.40;;
28682;SDS011;15862;43.062;25.626;2022-07-03T16:18:56;11.05;;;3.70;;
28682;SDS011;15862;43.062;25.626;2022-07-03T16:21:25;4.38;;;3.97;;
28682;SDS011;15862;43.062;25.626;2022-07-03T16:23:53;4.18;;;3.70;;